createdAt,value
2019-06-20T00:00:16.967Z,0.00
2019-06-20T00:01:16.963Z,0.00
2019-06-20T00:02:16.952Z,0.00
2019-06-20T00:03:16.931Z,0.00
2019-06-20T00:04:16.933Z,0.00
2019-06-20T00:05:16.915Z,0.00
2019-06-20T00:06:16.907Z,0.00
2019-06-20T00:07:16.894Z,0.00
2019-06-20T00:08:16.879Z,0.00
2019-06-20T00:09:16.878Z,0.00
2019-06-20T00:10:16.861Z,0.00
2019-06-20T00:11:16.850Z,0.00
2019-06-20T00:12:16.836Z,0.00
2019-06-20T00:13:16.826Z,0.00
2019-06-20T00:14:16.830Z,0.00
2019-06-20T00:15:16.810Z,0.00
2019-06-20T00:16:16.788Z,0.00
2019-06-20T00:17:16.786Z,0.00
2019-06-20T00:18:16.775Z,0.00
2019-06-20T00:19:16.773Z,0.00
2019-06-20T00:20:16.750Z,0.00
2019-06-20T00:21:16.745Z,0.00
2019-06-20T00:22:16.737Z,0.00
2019-06-20T00:23:16.734Z,0.00
2019-06-20T00:24:16.710Z,0.00
2019-06-20T00:25:16.708Z,0.00
2019-06-20T00:26:16.686Z,0.00
2019-06-20T00:27:16.677Z,0.00
2019-06-20T00:28:16.664Z,0.00
2019-06-20T00:29:16.688Z,0.00
2019-06-20T00:30:16.643Z,0.00
2019-06-20T00:31:16.626Z,0.00
2019-06-20T00:32:16.621Z,0.00
2019-06-20T00:33:16.613Z,0.00
2019-06-20T00:34:16.603Z,0.00
2019-06-20T00:35:16.600Z,0.00
2019-06-20T00:36:16.599Z,0.00
2019-06-20T00:37:16.566Z,0.00
2019-06-20T00:38:16.567Z,0.00
2019-06-20T00:39:16.538Z,0.00
2019-06-20T00:40:16.533Z,0.00
2019-06-20T00:41:16.544Z,0.00
2019-06-20T00:42:16.511Z,0.00
2019-06-20T00:43:18.252Z,0.00
2019-06-20T00:44:16.491Z,0.00
2019-06-20T00:45:16.492Z,0.00
2019-06-20T00:46:16.481Z,0.00
2019-06-20T00:47:16.458Z,0.00
2019-06-20T00:48:16.442Z,0.00
2019-06-20T00:49:16.435Z,0.00
2019-06-20T00:50:16.424Z,0.00
2019-06-20T00:51:16.419Z,0.00
2019-06-20T00:52:16.398Z,0.00
2019-06-20T00:53:16.390Z,0.00
2019-06-20T00:54:16.397Z,0.00
2019-06-20T00:55:16.386Z,0.00
2019-06-20T00:56:16.370Z,0.00
2019-06-20T00:57:16.350Z,0.00
2019-06-20T00:58:16.337Z,0.00
2019-06-20T00:59:16.322Z,0.00
2019-06-20T01:00:16.315Z,0.00
2019-06-20T01:01:16.354Z,0.00
2019-06-20T01:02:16.299Z,0.00
2019-06-20T01:03:16.311Z,0.00
2019-06-20T01:04:16.275Z,0.00
2019-06-20T01:05:16.262Z,0.00
2019-06-20T01:06:16.270Z,0.00
2019-06-20T01:07:16.244Z,0.00
2019-06-20T01:08:16.229Z,0.00
2019-06-20T01:09:16.258Z,0.00
2019-06-20T01:10:16.217Z,0.00
2019-06-20T01:11:16.199Z,0.00
2019-06-20T01:12:16.192Z,0.00
2019-06-20T01:13:32.286Z,0.00
2019-06-20T01:14:17.186Z,0.00
2019-06-20T01:15:16.152Z,0.00
2019-06-20T01:16:16.138Z,0.00
2019-06-20T01:17:16.154Z,0.00
2019-06-20T01:18:16.121Z,0.00
2019-06-20T01:19:16.115Z,0.00
2019-06-20T01:20:16.097Z,0.00
2019-06-20T01:21:16.091Z,0.00
2019-06-20T01:22:16.077Z,0.00
2019-06-20T01:23:16.072Z,0.00
2019-06-20T01:24:16.052Z,0.00
2019-06-20T01:25:16.047Z,0.00
2019-06-20T01:26:16.041Z,0.00
2019-06-20T01:27:16.025Z,0.00
2019-06-20T01:28:16.019Z,0.00
2019-06-20T01:29:16.015Z,0.00
2019-06-20T01:30:15.989Z,0.00
2019-06-20T01:31:15.986Z,0.00
2019-06-20T01:32:15.975Z,0.00
2019-06-20T01:33:15.994Z,0.00
2019-06-20T01:34:15.945Z,0.00
2019-06-20T01:35:15.942Z,0.00
2019-06-20T01:36:15.924Z,0.00
2019-06-20T01:37:15.921Z,0.00
2019-06-20T01:38:15.906Z,0.00
2019-06-20T01:39:15.914Z,0.00
2019-06-20T01:40:15.886Z,0.00
2019-06-20T01:41:15.870Z,0.00
2019-06-20T01:42:15.863Z,0.00
2019-06-20T01:43:15.852Z,0.00
2019-06-20T01:44:15.859Z,0.00
2019-06-20T01:45:15.828Z,0.00
2019-06-20T01:46:15.817Z,0.00
2019-06-20T01:47:15.808Z,0.00
2019-06-20T01:48:15.802Z,0.00
2019-06-20T01:49:15.798Z,0.00
2019-06-20T01:50:15.771Z,0.00
2019-06-20T01:51:15.762Z,0.00
2019-06-20T01:52:15.782Z,0.00
2019-06-20T01:53:15.737Z,0.00
2019-06-20T01:54:15.762Z,0.00
2019-06-20T01:55:15.717Z,0.00
2019-06-20T01:56:15.704Z,0.00
2019-06-20T01:57:15.695Z,0.00
2019-06-20T01:58:15.684Z,0.00
2019-06-20T01:59:15.673Z,0.00
2019-06-20T02:00:15.679Z,0.00
2019-06-20T02:01:15.661Z,0.00
2019-06-20T02:02:15.641Z,0.00
2019-06-20T02:03:15.631Z,0.00
2019-06-20T02:04:15.614Z,0.00
2019-06-20T02:05:15.619Z,0.00
2019-06-20T02:06:15.607Z,0.00
2019-06-20T02:07:15.588Z,4.00
2019-06-20T02:08:15.583Z,4.00
2019-06-20T02:09:15.558Z,4.00
2019-06-20T02:10:15.547Z,4.00
2019-06-20T02:11:15.550Z,0.00
2019-06-20T02:12:15.535Z,4.00
2019-06-20T02:13:15.514Z,4.00
2019-06-20T02:14:15.509Z,4.00
2019-06-20T02:15:15.497Z,8.00
2019-06-20T02:16:15.613Z,4.00
2019-06-20T02:17:15.478Z,4.00
2019-06-20T02:18:15.517Z,4.00
2019-06-20T02:19:15.450Z,8.00
2019-06-20T02:20:15.446Z,4.00
2019-06-20T02:21:15.430Z,8.00
2019-06-20T02:22:15.442Z,8.00
2019-06-20T02:23:15.406Z,12.00
2019-06-20T02:24:15.392Z,12.00
2019-06-20T02:25:15.465Z,12.00
2019-06-20T02:26:15.372Z,16.00
2019-06-20T02:27:15.364Z,16.00
2019-06-20T02:28:15.354Z,20.00
2019-06-20T02:29:15.343Z,20.00
2019-06-20T02:30:15.327Z,24.00
2019-06-20T02:31:15.351Z,24.00
2019-06-20T02:32:15.312Z,28.00
2019-06-20T02:33:15.296Z,32.00
2019-06-20T02:34:15.309Z,32.00
2019-06-20T02:35:15.277Z,36.00
2019-06-20T02:36:15.270Z,40.00
2019-06-20T02:37:15.265Z,44.00
2019-06-20T02:38:15.250Z,48.00
2019-06-20T02:39:15.236Z,52.00
2019-06-20T02:40:15.223Z,60.00
2019-06-20T02:41:15.211Z,60.00
2019-06-20T02:42:15.214Z,64.00
2019-06-20T02:43:15.188Z,72.00
2019-06-20T02:44:29.354Z,76.00
2019-06-20T02:45:16.167Z,80.00
2019-06-20T02:46:15.161Z,84.00
2019-06-20T02:47:15.177Z,88.00
2019-06-20T02:48:15.137Z,96.00
2019-06-20T02:49:15.151Z,100.00
2019-06-20T02:50:15.117Z,108.00
2019-06-20T02:51:15.101Z,116.00
2019-06-20T02:52:15.094Z,120.00
2019-06-20T02:53:15.083Z,128.00
2019-06-20T02:54:15.067Z,136.00
2019-06-20T02:55:15.123Z,140.00
2019-06-20T02:56:15.043Z,152.00
2019-06-20T02:57:15.039Z,160.00
2019-06-20T02:58:15.028Z,168.00
2019-06-20T02:59:15.020Z,176.00
2019-06-20T03:00:15.003Z,188.00
2019-06-20T03:01:15.011Z,200.00
2019-06-20T03:02:14.983Z,208.00
2019-06-20T03:03:14.995Z,216.00
2019-06-20T03:04:14.976Z,228.00
2019-06-20T03:05:14.961Z,236.00
2019-06-20T03:06:14.950Z,248.00
2019-06-20T03:07:14.932Z,256.00
2019-06-20T03:08:14.918Z,272.00
2019-06-20T03:09:14.909Z,288.00
2019-06-20T03:10:14.907Z,312.00
2019-06-20T03:11:14.889Z,344.00
2019-06-20T03:12:14.871Z,372.00
2019-06-20T03:13:14.866Z,400.00
2019-06-20T03:14:14.851Z,404.00
2019-06-20T03:15:14.861Z,404.00
2019-06-20T03:16:14.832Z,412.00
2019-06-20T03:17:14.822Z,404.00
2019-06-20T03:18:14.811Z,392.00
2019-06-20T03:19:14.834Z,372.00
2019-06-20T03:20:14.794Z,352.00
2019-06-20T03:21:14.780Z,332.00
2019-06-20T03:22:14.767Z,328.00
2019-06-20T03:23:14.771Z,332.00
2019-06-20T03:24:14.742Z,348.00
2019-06-20T03:25:14.738Z,372.00
2019-06-20T03:26:14.736Z,408.00
2019-06-20T03:27:14.720Z,452.00
2019-06-20T03:28:14.723Z,484.00
2019-06-20T03:29:14.686Z,468.00
2019-06-20T03:30:14.684Z,476.00
2019-06-20T03:31:14.699Z,492.00
2019-06-20T03:32:14.659Z,516.00
2019-06-20T03:33:14.646Z,540.00
2019-06-20T03:34:14.634Z,596.00
2019-06-20T03:35:14.628Z,608.00
2019-06-20T03:36:14.627Z,612.00
2019-06-20T03:37:14.613Z,608.00
2019-06-20T03:38:14.609Z,616.00
2019-06-20T03:39:14.587Z,632.00
2019-06-20T03:40:14.576Z,660.00
2019-06-20T03:41:14.559Z,688.00
2019-06-20T03:42:14.566Z,708.00
2019-06-20T03:43:14.545Z,732.00
2019-06-20T03:44:14.527Z,748.00
2019-06-20T03:45:14.523Z,768.00
2019-06-20T03:46:14.508Z,796.00
2019-06-20T03:47:14.522Z,832.00
2019-06-20T03:48:14.487Z,868.00
2019-06-20T03:49:14.471Z,940.00
2019-06-20T03:50:14.459Z,1720.00
2019-06-20T03:51:14.453Z,1792.00
2019-06-20T03:52:14.436Z,1624.00
2019-06-20T03:53:14.449Z,1604.00
2019-06-20T03:54:14.420Z,1900.00
2019-06-20T03:55:14.413Z,1840.00
2019-06-20T03:56:14.397Z,1716.00
2019-06-20T03:57:14.409Z,1764.00
2019-06-20T03:58:14.382Z,1796.00
2019-06-20T03:59:14.368Z,1812.00
2019-06-20T04:00:14.358Z,1868.00
2019-06-20T04:01:14.347Z,1940.00
2019-06-20T04:02:14.368Z,2028.00
2019-06-20T04:03:14.317Z,2140.00
2019-06-20T04:04:14.307Z,2364.00
2019-06-20T04:05:14.295Z,2504.00
2019-06-20T04:06:14.290Z,2772.00
2019-06-20T04:07:14.280Z,2912.00
2019-06-20T04:08:14.287Z,2936.00
2019-06-20T04:09:14.254Z,2960.00
2019-06-20T04:10:14.304Z,3092.00
2019-06-20T04:11:14.235Z,3372.00
2019-06-20T04:12:14.224Z,3476.00
2019-06-20T04:13:14.222Z,3524.00
2019-06-20T04:14:14.210Z,3528.00
2019-06-20T04:15:19.165Z,3404.00
2019-06-20T04:16:15.174Z,3416.00
2019-06-20T04:17:14.170Z,3632.00
2019-06-20T04:18:14.157Z,3624.00
2019-06-20T04:19:14.167Z,3620.00
2019-06-20T04:20:14.163Z,3708.00
2019-06-20T04:21:14.120Z,3372.00
2019-06-20T04:22:14.114Z,3164.00
2019-06-20T04:23:14.097Z,3276.00
2019-06-20T04:24:14.109Z,3464.00
2019-06-20T04:25:14.083Z,3684.00
2019-06-20T04:26:14.070Z,3828.00
2019-06-20T04:27:14.058Z,3888.00
2019-06-20T04:28:14.051Z,4112.00
2019-06-20T04:29:14.059Z,4320.00
2019-06-20T04:30:14.027Z,4644.00
2019-06-20T04:31:14.016Z,4364.00
2019-06-20T04:32:13.998Z,4308.00
2019-06-20T04:33:13.997Z,4388.00
2019-06-20T04:34:13.983Z,4428.00
2019-06-20T04:35:13.989Z,4448.00
2019-06-20T04:36:13.961Z,4508.00
2019-06-20T04:37:13.950Z,4536.00
2019-06-20T04:38:13.933Z,4600.00
2019-06-20T04:39:19.306Z,4724.00
2019-06-20T04:40:14.945Z,4816.00
2019-06-20T04:41:13.899Z,4912.00
2019-06-20T04:42:13.898Z,4964.00
2019-06-20T04:43:13.896Z,4952.00
2019-06-20T04:44:13.875Z,5156.00
2019-06-20T04:45:13.857Z,5184.00
2019-06-20T04:46:13.848Z,5208.00
2019-06-20T04:47:13.840Z,5252.00
2019-06-20T04:48:13.835Z,5316.00
2019-06-20T04:49:13.820Z,4028.00
2019-06-20T04:50:13.803Z,5496.00
2019-06-20T04:51:13.834Z,5700.00
2019-06-20T04:52:13.786Z,5832.00
2019-06-20T04:53:13.821Z,5948.00
2019-06-20T04:54:13.761Z,5980.00
2019-06-20T04:55:13.757Z,5808.00
2019-06-20T04:56:13.739Z,5964.00
2019-06-20T04:57:13.755Z,6112.00
2019-06-20T04:58:13.724Z,6328.00
2019-06-20T04:59:13.713Z,6500.00
2019-06-20T05:00:13.702Z,6768.00
2019-06-20T05:01:13.685Z,6692.00
2019-06-20T05:02:14.994Z,6900.00
2019-06-20T05:03:13.664Z,7412.00
2019-06-20T05:04:13.689Z,7608.00
2019-06-20T05:05:13.962Z,7552.00
2019-06-20T05:06:13.637Z,7912.00
2019-06-20T05:07:13.621Z,7944.00
2019-06-20T05:08:13.617Z,8152.00
2019-06-20T05:09:13.607Z,8524.00
2019-06-20T05:10:13.617Z,8292.00
2019-06-20T05:11:13.586Z,8344.00
2019-06-20T05:12:13.574Z,7784.00
2019-06-20T05:13:13.565Z,7092.00
2019-06-20T05:14:13.607Z,6044.00
2019-06-20T05:15:13.537Z,4848.00
2019-06-20T05:16:13.530Z,5160.00
2019-06-20T05:17:13.516Z,6692.00
2019-06-20T05:18:13.509Z,6320.00
2019-06-20T05:19:13.509Z,6784.00
2019-06-20T05:20:13.499Z,6980.00
2019-06-20T05:21:13.477Z,7168.00
2019-06-20T05:22:13.474Z,6952.00
2019-06-20T05:23:13.451Z,6480.00
2019-06-20T05:24:13.441Z,5688.00
2019-06-20T05:25:13.443Z,5368.00
2019-06-20T05:26:13.425Z,6584.00
2019-06-20T05:27:13.412Z,6624.00
2019-06-20T05:28:13.403Z,4684.00
2019-06-20T05:29:13.392Z,4824.00
2019-06-20T05:30:13.423Z,5008.00
2019-06-20T05:31:13.373Z,5836.00
2019-06-20T05:32:13.361Z,6324.00
2019-06-20T05:33:13.356Z,6744.00
2019-06-20T05:34:13.345Z,7132.00
2019-06-20T05:35:13.327Z,7628.00
2019-06-20T05:36:13.345Z,6804.00
2019-06-20T05:37:13.308Z,6876.00
2019-06-20T05:38:13.303Z,7828.00
2019-06-20T05:39:13.293Z,5020.00
2019-06-20T05:40:13.274Z,4704.00
2019-06-20T05:41:13.288Z,4304.00
2019-06-20T05:42:13.259Z,3964.00
2019-06-20T05:43:13.247Z,3644.00
2019-06-20T05:44:13.241Z,3292.00
2019-06-20T05:45:13.217Z,2840.00
2019-06-20T05:46:13.213Z,2356.00
2019-06-20T05:47:14.115Z,2176.00
2019-06-20T05:48:13.191Z,2140.00
2019-06-20T05:49:13.180Z,2148.00
2019-06-20T05:50:13.289Z,2336.00
2019-06-20T05:51:13.232Z,2428.00
2019-06-20T05:52:13.143Z,2464.00
2019-06-20T05:53:13.151Z,2500.00
2019-06-20T05:54:13.119Z,2628.00
2019-06-20T05:55:13.118Z,2956.00
2019-06-20T05:56:13.099Z,3196.00
2019-06-20T05:57:13.084Z,3288.00
2019-06-20T05:58:13.102Z,3344.00
2019-06-20T05:59:13.082Z,3464.00
2019-06-20T06:00:13.066Z,3624.00
2019-06-20T06:01:13.043Z,3884.00
2019-06-20T06:02:13.032Z,4160.00
2019-06-20T06:03:13.831Z,4392.00
2019-06-20T06:04:13.015Z,4548.00
2019-06-20T06:05:13.006Z,4636.00
2019-06-20T06:06:12.992Z,4480.00
2019-06-20T06:07:14.252Z,4020.00
2019-06-20T06:08:12.979Z,3536.00
2019-06-20T06:09:12.956Z,3108.00
2019-06-20T06:10:12.985Z,2840.00
2019-06-20T06:11:12.941Z,2604.00
2019-06-20T06:12:12.919Z,2300.00
2019-06-20T06:13:12.941Z,2068.00
2019-06-20T06:14:13.874Z,1880.00
2019-06-20T06:15:12.909Z,1652.00
2019-06-20T06:16:25.635Z,1496.00
2019-06-20T06:17:13.871Z,1344.00
2019-06-20T06:18:14.124Z,1236.00
2019-06-20T06:19:12.846Z,1156.00
2019-06-20T06:20:12.840Z,1100.00
2019-06-20T06:21:12.823Z,1096.00
2019-06-20T06:22:12.817Z,1152.00
2019-06-20T06:23:12.808Z,1176.00
2019-06-20T06:24:12.803Z,1108.00
2019-06-20T06:25:12.784Z,1168.00
2019-06-20T06:26:12.769Z,1260.00
2019-06-20T06:27:12.757Z,1252.00
2019-06-20T06:28:12.852Z,1240.00
2019-06-20T06:29:12.752Z,1372.00
2019-06-20T06:30:12.727Z,1448.00
2019-06-20T06:31:12.719Z,1468.00
2019-06-20T06:32:12.703Z,1404.00
2019-06-20T06:33:12.691Z,1412.00
2019-06-20T06:34:12.687Z,1500.00
2019-06-20T06:35:12.720Z,1704.00
2019-06-20T06:36:12.667Z,1820.00
2019-06-20T06:37:12.648Z,1764.00
2019-06-20T06:38:12.635Z,1772.00
2019-06-20T06:39:12.626Z,1696.00
2019-06-20T06:40:12.622Z,1720.00
2019-06-20T06:41:12.622Z,1868.00
2019-06-20T06:42:12.593Z,2060.00
2019-06-20T06:43:12.579Z,2276.00
2019-06-20T06:44:12.582Z,2208.00
2019-06-20T06:45:12.569Z,2224.00
2019-06-20T06:46:12.552Z,2404.00
2019-06-20T06:47:12.551Z,2508.00
2019-06-20T06:48:12.527Z,2568.00
2019-06-20T06:49:12.521Z,2620.00
2019-06-20T06:50:12.504Z,2780.00
2019-06-20T06:51:12.506Z,2888.00
2019-06-20T06:52:12.487Z,2816.00
2019-06-20T06:53:12.467Z,2784.00
2019-06-20T06:54:12.456Z,2732.00
2019-06-20T06:55:12.452Z,2596.00
2019-06-20T06:56:12.448Z,2336.00
2019-06-20T06:57:12.433Z,2128.00
2019-06-20T06:58:12.423Z,1992.00
2019-06-20T06:59:12.406Z,1908.00
2019-06-20T07:00:12.394Z,1848.00
2019-06-20T07:01:12.378Z,1880.00
2019-06-20T07:02:12.368Z,1888.00
2019-06-20T07:03:12.375Z,1880.00
2019-06-20T07:04:12.352Z,2160.00
2019-06-20T07:05:12.342Z,2428.00
2019-06-20T07:06:12.325Z,2712.00
2019-06-20T07:07:12.324Z,2992.00
2019-06-20T07:08:12.317Z,3260.00
2019-06-20T07:09:12.293Z,3520.00
2019-06-20T07:10:12.288Z,3748.00
2019-06-20T07:11:12.266Z,3556.00
2019-06-20T07:12:12.262Z,3780.00
2019-06-20T07:13:12.268Z,4284.00
2019-06-20T07:14:12.246Z,4848.00
2019-06-20T07:15:12.231Z,5260.00
2019-06-20T07:16:12.217Z,5328.00
2019-06-20T07:17:12.242Z,4896.00
2019-06-20T07:18:12.208Z,4596.00
2019-06-20T07:19:12.207Z,4456.00
2019-06-20T07:20:15.127Z,4360.00
2019-06-20T07:21:12.164Z,4648.00
2019-06-20T07:22:12.182Z,5220.00
2019-06-20T07:23:12.143Z,5604.00
2019-06-20T07:24:12.168Z,5616.00
2019-06-20T07:25:12.122Z,5552.00
2019-06-20T07:26:12.110Z,5988.00
2019-06-20T07:27:12.090Z,6452.00
2019-06-20T07:28:12.078Z,7032.00
2019-06-20T07:29:12.073Z,7036.00
2019-06-20T07:30:12.078Z,7792.00
2019-06-20T07:31:12.082Z,8532.00
2019-06-20T07:32:12.044Z,7884.00
2019-06-20T07:33:12.081Z,6708.00
2019-06-20T07:34:12.019Z,4584.00
2019-06-20T07:35:12.035Z,3332.00
2019-06-20T07:36:11.997Z,2872.00
2019-06-20T07:37:11.992Z,2768.00
2019-06-20T07:38:11.977Z,2460.00
2019-06-20T07:39:11.961Z,2176.00
2019-06-20T07:40:11.971Z,2040.00
2019-06-20T07:41:11.962Z,1892.00
2019-06-20T07:42:11.939Z,1712.00
2019-06-20T07:43:11.920Z,1712.00
2019-06-20T07:44:11.930Z,1704.00
2019-06-20T07:45:11.915Z,1948.00
2019-06-20T07:46:11.903Z,2224.00
2019-06-20T07:47:17.648Z,2412.00
2019-06-20T07:48:12.860Z,2672.00
2019-06-20T07:49:11.852Z,2832.00
2019-06-20T07:50:11.844Z,2692.00
2019-06-20T07:51:11.857Z,2572.00
2019-06-20T07:52:11.817Z,2576.00
2019-06-20T07:53:11.819Z,2612.00
2019-06-20T07:54:11.811Z,2932.00
2019-06-20T07:55:11.786Z,3288.00
2019-06-20T07:56:11.795Z,3204.00
2019-06-20T07:57:11.769Z,3200.00
2019-06-20T07:58:11.755Z,3264.00
2019-06-20T07:59:11.750Z,3208.00
2019-06-20T08:00:11.738Z,3256.00
2019-06-20T08:01:11.742Z,3412.00
2019-06-20T08:02:11.712Z,3356.00
2019-06-20T08:03:11.708Z,3324.00
2019-06-20T08:04:11.688Z,3204.00
2019-06-20T08:05:11.687Z,2980.00
2019-06-20T08:06:11.675Z,2944.00
2019-06-20T08:07:11.656Z,3216.00
2019-06-20T08:08:11.656Z,3424.00
2019-06-20T08:09:11.679Z,3240.00
2019-06-20T08:10:11.645Z,3016.00
2019-06-20T08:11:11.706Z,3032.00
2019-06-20T08:12:11.616Z,3280.00
2019-06-20T08:13:11.589Z,3700.00
2019-06-20T08:14:11.584Z,3792.00
2019-06-20T08:15:15.703Z,3968.00
2019-06-20T08:16:11.559Z,4376.00
2019-06-20T08:17:11.577Z,4884.00
2019-06-20T08:18:11.536Z,6156.00
2019-06-20T08:19:11.525Z,6816.00
2019-06-20T08:20:11.525Z,6568.00
2019-06-20T08:21:11.506Z,6912.00
2019-06-20T08:22:11.497Z,6820.00
2019-06-20T08:23:11.612Z,5724.00
2019-06-20T08:24:11.470Z,4660.00
2019-06-20T08:25:11.458Z,4024.00
2019-06-20T08:26:11.453Z,5064.00
2019-06-20T08:27:14.781Z,5140.00
2019-06-20T08:28:11.429Z,4712.00
2019-06-20T08:29:20.581Z,5040.00
2019-06-20T08:30:12.402Z,5336.00
2019-06-20T08:31:11.401Z,5980.00
2019-06-20T08:32:11.452Z,5696.00
2019-06-20T08:33:12.263Z,5680.00
2019-06-20T08:34:11.360Z,6888.00
2019-06-20T08:35:11.370Z,8392.00
2019-06-20T08:36:11.360Z,11228.00
2019-06-20T08:37:11.326Z,19360.00
2019-06-20T08:38:11.320Z,17984.00
2019-06-20T08:39:11.308Z,11824.00
2019-06-20T08:40:11.315Z,10316.00
2019-06-20T08:41:11.310Z,11048.00
2019-06-20T08:42:11.284Z,12288.00
2019-06-20T08:43:11.262Z,11684.00
2019-06-20T08:44:11.254Z,12256.00
2019-06-20T08:45:11.254Z,13512.00
2019-06-20T08:46:11.227Z,13444.00
2019-06-20T08:47:11.227Z,12984.00
2019-06-20T08:48:11.207Z,12472.00
2019-06-20T08:49:11.200Z,11800.00
2019-06-20T08:50:11.226Z,14464.00
2019-06-20T08:51:14.469Z,13824.00
2019-06-20T08:52:11.176Z,10508.00
2019-06-20T08:53:11.155Z,8840.00
2019-06-20T08:54:11.146Z,13728.00
2019-06-20T08:55:11.138Z,14600.00
2019-06-20T08:56:11.140Z,15016.00
2019-06-20T08:57:11.115Z,16736.00
2019-06-20T08:58:11.099Z,14312.00
2019-06-20T08:59:23.826Z,15220.00
2019-06-20T09:00:12.081Z,8528.00
2019-06-20T09:01:11.091Z,6776.00
2019-06-20T09:02:11.070Z,5540.00
2019-06-20T09:03:11.049Z,4744.00
2019-06-20T09:04:11.040Z,4080.00
2019-06-20T09:05:11.030Z,3540.00
2019-06-20T09:06:11.037Z,3236.00
2019-06-20T09:07:11.004Z,3244.00
2019-06-20T09:08:11.817Z,3144.00
2019-06-20T09:09:10.984Z,2952.00
2019-06-20T09:10:10.970Z,2744.00
2019-06-20T09:11:10.994Z,2944.00
2019-06-20T09:12:10.954Z,2788.00
2019-06-20T09:13:10.940Z,2596.00
2019-06-20T09:14:10.929Z,3156.00
2019-06-20T09:15:10.921Z,4216.00
2019-06-20T09:16:23.982Z,5776.00
2019-06-20T09:17:11.921Z,5876.00
2019-06-20T09:18:10.892Z,3716.00
2019-06-20T09:19:10.872Z,2876.00
2019-06-20T09:20:10.866Z,2556.00
2019-06-20T09:21:10.855Z,3112.00
2019-06-20T09:22:10.851Z,3972.00
2019-06-20T09:23:10.858Z,5060.00
2019-06-20T09:24:10.828Z,6636.00
2019-06-20T09:25:10.810Z,8264.00
2019-06-20T09:26:10.807Z,11940.00
2019-06-20T09:27:10.814Z,11084.00
2019-06-20T09:28:10.790Z,9540.00
2019-06-20T09:29:10.770Z,8544.00
2019-06-20T09:30:10.760Z,7988.00
2019-06-20T09:31:10.743Z,7712.00
2019-06-20T09:32:10.755Z,7448.00
2019-06-20T09:33:10.730Z,7064.00
2019-06-20T09:34:10.730Z,7152.00
2019-06-20T09:35:10.700Z,8264.00
2019-06-20T09:36:10.697Z,7928.00
2019-06-20T09:37:10.697Z,6124.00
2019-06-20T09:38:10.672Z,6180.00
2019-06-20T09:39:10.677Z,8812.00
2019-06-20T09:40:10.666Z,12636.00
2019-06-20T09:41:10.640Z,14616.00
2019-06-20T09:42:10.629Z,19520.00
2019-06-20T09:43:10.623Z,19488.00
2019-06-20T09:44:10.627Z,19968.00
2019-06-20T09:45:10.605Z,17728.00
2019-06-20T09:46:10.589Z,14088.00
2019-06-20T09:47:10.577Z,12312.00
2019-06-20T09:48:10.559Z,11188.00
2019-06-20T09:49:10.563Z,11612.00
2019-06-20T09:50:10.573Z,11276.00
2019-06-20T09:51:10.528Z,10556.00
2019-06-20T09:52:10.555Z,10860.00
2019-06-20T09:53:10.507Z,10900.00
2019-06-20T09:54:10.494Z,11684.00
2019-06-20T09:55:10.484Z,13732.00
2019-06-20T09:56:10.499Z,20448.00
2019-06-20T09:57:10.465Z,20864.00
2019-06-20T09:58:10.457Z,17088.00
2019-06-20T09:59:26.681Z,19936.00
2019-06-20T10:00:11.523Z,18912.00
2019-06-20T10:01:10.427Z,18720.00
2019-06-20T10:02:10.413Z,23520.00
2019-06-20T10:03:10.400Z,17408.00
2019-06-20T10:04:10.396Z,21600.00
2019-06-20T10:05:10.389Z,14708.00
2019-06-20T10:06:13.903Z,13752.00
2019-06-20T10:07:10.354Z,36928.00
2019-06-20T10:08:10.348Z,13928.00
2019-06-20T10:09:10.336Z,14248.00
2019-06-20T10:10:10.335Z,15636.00
2019-06-20T10:11:10.311Z,14096.00
2019-06-20T10:12:10.325Z,14172.00
2019-06-20T10:13:10.291Z,15708.00
2019-06-20T10:14:10.284Z,20192.00
2019-06-20T10:15:10.274Z,44512.00
2019-06-20T10:16:10.265Z,107712.00
2019-06-20T10:17:10.267Z,105216.00
2019-06-20T10:18:10.237Z,105888.00
2019-06-20T10:19:12.668Z,100672.00
2019-06-20T10:20:10.221Z,100512.00
2019-06-20T10:21:10.211Z,104736.00
2019-06-20T10:22:10.226Z,103328.00
2019-06-20T10:23:10.191Z,102176.00
2019-06-20T10:24:10.214Z,96320.00
2019-06-20T10:25:10.167Z,102560.00
2019-06-20T10:26:10.167Z,98784.00
2019-06-20T10:27:10.163Z,101600.00
2019-06-20T10:28:10.168Z,103360.00
2019-06-20T10:29:10.128Z,43840.00
2019-06-20T10:30:14.243Z,33216.00
2019-06-20T10:31:10.110Z,104192.00
2019-06-20T10:32:10.131Z,99936.00
2019-06-20T10:33:10.113Z,96608.00
2019-06-20T10:34:10.082Z,97824.00
2019-06-20T10:35:10.076Z,94208.00
2019-06-20T10:36:10.064Z,83168.00
2019-06-20T10:37:10.056Z,32608.00
2019-06-20T10:38:10.049Z,13760.00
2019-06-20T10:39:10.077Z,10820.00
2019-06-20T10:40:10.036Z,11788.00
2019-06-20T10:41:10.023Z,18592.00
2019-06-20T10:42:10.009Z,22656.00
2019-06-20T10:43:10.016Z,21184.00
2019-06-20T10:44:10.034Z,26688.00
2019-06-20T10:45:09.975Z,22016.00
2019-06-20T10:46:09.971Z,23872.00
2019-06-20T10:47:09.956Z,29920.00
2019-06-20T10:48:09.944Z,23584.00
2019-06-20T10:49:09.934Z,17536.00
2019-06-20T10:50:09.948Z,16144.00
2019-06-20T10:51:09.941Z,14320.00
2019-06-20T10:52:09.908Z,19488.00
2019-06-20T10:53:09.899Z,19552.00
2019-06-20T10:54:09.940Z,19296.00
2019-06-20T10:55:09.871Z,18176.00
2019-06-20T10:56:09.891Z,14856.00
2019-06-20T10:57:09.852Z,15992.00
2019-06-20T10:58:09.846Z,19744.00
2019-06-20T10:59:09.854Z,36960.00
2019-06-20T11:00:09.844Z,40864.00
2019-06-20T11:01:09.809Z,53760.00
2019-06-20T11:02:09.811Z,109696.00
2019-06-20T11:03:09.794Z,106336.00
2019-06-20T11:04:09.781Z,100096.00
2019-06-20T11:05:09.798Z,100928.00
2019-06-20T11:06:09.756Z,100256.00
2019-06-20T11:07:09.748Z,97984.00
2019-06-20T11:08:09.752Z,92544.00
2019-06-20T11:09:09.740Z,84416.00
2019-06-20T11:10:09.719Z,85728.00
2019-06-20T11:11:09.720Z,83008.00
2019-06-20T11:12:09.703Z,77856.00
2019-06-20T11:13:09.693Z,70784.00
2019-06-20T11:14:09.684Z,67328.00
2019-06-20T11:15:09.691Z,60384.00
2019-06-20T11:16:09.674Z,54528.00
2019-06-20T11:17:09.649Z,47520.00
2019-06-20T11:18:09.646Z,52704.00
2019-06-20T11:19:09.633Z,49536.00
2019-06-20T11:20:09.621Z,40480.00
2019-06-20T11:21:09.629Z,46752.00
2019-06-20T11:22:09.606Z,51360.00
2019-06-20T11:23:09.594Z,49760.00
2019-06-20T11:24:09.580Z,45696.00
2019-06-20T11:25:09.572Z,39488.00
2019-06-20T11:26:09.583Z,44960.00
2019-06-20T11:27:09.555Z,43744.00
2019-06-20T11:28:09.545Z,46816.00
2019-06-20T11:29:09.532Z,48000.00
2019-06-20T11:30:09.525Z,56224.00
2019-06-20T11:31:09.526Z,57536.00
2019-06-20T11:32:09.525Z,56928.00
2019-06-20T11:33:09.525Z,63008.00
2019-06-20T11:34:09.477Z,58112.00
2019-06-20T11:35:09.477Z,64064.00
2019-06-20T11:36:09.543Z,55488.00
2019-06-20T11:37:09.491Z,61152.00
2019-06-20T11:38:09.440Z,60896.00
2019-06-20T11:39:09.445Z,49248.00
2019-06-20T11:40:09.416Z,56096.00
2019-06-20T11:41:09.409Z,55424.00
2019-06-20T11:42:09.411Z,21280.00
2019-06-20T11:43:09.389Z,8492.00
2019-06-20T11:44:09.397Z,33472.00
2019-06-20T11:45:09.377Z,34592.00
2019-06-20T11:46:09.360Z,34176.00
2019-06-20T11:47:09.348Z,35072.00
2019-06-20T11:48:09.332Z,30304.00
2019-06-20T11:49:09.328Z,18944.00
2019-06-20T11:50:09.340Z,15416.00
2019-06-20T11:51:09.307Z,15576.00
2019-06-20T11:52:09.409Z,18720.00
2019-06-20T11:53:09.285Z,16184.00
2019-06-20T11:54:09.274Z,11628.00
2019-06-20T11:55:09.264Z,12472.00
2019-06-20T11:56:09.309Z,10808.00
2019-06-20T11:57:09.245Z,12624.00
2019-06-20T11:58:09.231Z,10596.00
2019-06-20T11:59:09.246Z,9536.00
2019-06-20T12:00:09.213Z,8888.00
2019-06-20T12:01:09.197Z,8220.00
2019-06-20T12:02:09.211Z,7924.00
2019-06-20T12:03:09.175Z,8328.00
2019-06-20T12:04:09.544Z,8628.00
2019-06-20T12:05:09.160Z,8596.00
2019-06-20T12:06:09.166Z,8440.00
2019-06-20T12:07:09.139Z,8156.00
2019-06-20T12:08:09.130Z,8020.00
2019-06-20T12:09:09.155Z,8108.00
2019-06-20T12:10:09.111Z,8572.00
2019-06-20T12:11:09.095Z,9436.00
2019-06-20T12:12:09.087Z,10496.00
2019-06-20T12:13:09.083Z,12468.00
2019-06-20T12:14:09.064Z,13280.00
2019-06-20T12:15:09.069Z,12660.00
2019-06-20T12:16:09.051Z,11648.00